sensor_id;sensor_type;location;lat;lon;timestamp;P1;durP1;ratioP1;P2;durP2;ratioP2
41061;SDS011;26812;42.662;23.352;2022-12-24T00:01:15;58.38;;;31.92;;
41061;SDS011;26812;42.662;23.352;2022-12-24T00:03:41;54.28;;;30.08;;
41061;SDS011;26812;42.662;23.352;2022-12-24T00:06:07;47.20;;;28.60;;
41061;SDS011;26812;42.662;23.352;2022-12-24T00:08:34;56.40;;;32.83;;
41061;SDS011;26812;42.662;23.352;2022-12-24T00:11:00;40.83;;;25.35;;
41061;SDS011;26812;42.662;23.352;2022-12-24T00:13:25;50.50;;;29.67;;
41061;SDS011;26812;42.662;23.352;2022-12-24T00:15:50;50.70;;;30.15;;
41061;SDS011;26812;42.662;23.352;2022-12-24T00:18:16;44.20;;;29.55;;
41061;SDS011;26812;42.662;23.352;2022-12-24T00:20:44;46.72;;;28.75;;
41061;SDS011;26812;42.662;23.352;2022-12-24T00:23:11;48.80;;;29.92;;
41061;SDS011;26812;42.662;23.352;2022-12-24T00:25:36;52.35;;;30.15;;
41061;SDS011;26812;42.662;23.352;2022-12-24T00:28:02;49.55;;;29.52;;
41061;SDS011;26812;42.662;23.352;2022-12-24T00:30:27;54.10;;;30.20;;
41061;SDS011;26812;42.662;23.352;2022-12-24T00:32:53;50.05;;;30.23;;
41061;SDS011;26812;42.662;23.352;2022-12-24T00:35:18;42.97;;;26.67;;
41061;SDS011;26812;42.662;23.352;2022-12-24T00:37:46;43.17;;;27.38;;
41061;SDS011;26812;42.662;23.352;2022-12-24T00:40:12;44.20;;;26.42;;
41061;SDS011;26812;42.662;23.352;2022-12-24T00:42:38;42.95;;;26.95;;
41061;SDS011;26812;42.662;23.352;2022-12-24T00:45:10;44.25;;;26.95;;
41061;SDS011;26812;42.662;23.352;2022-12-24T00:47:36;37.13;;;23.83;;
41061;SDS011;26812;42.662;23.352;2022-12-24T00:50:01;43.33;;;25.77;;
41061;SDS011;26812;42.662;23.352;2022-12-24T00:52:27;48.85;;;26.00;;
41061;SDS011;26812;42.662;23.352;2022-12-24T00:54:52;44.83;;;25.83;;
41061;SDS011;26812;42.662;23.352;2022-12-24T00:57:18;37.80;;;25.75;;
41061;SDS011;26812;42.662;23.352;2022-12-24T00:59:50;45.22;;;27.90;;
41061;SDS011;26812;42.662;23.352;2022-12-24T01:02:15;47.55;;;27.50;;
41061;SDS011;26812;42.662;23.352;2022-12-24T01:04:40;44.10;;;27.73;;
41061;SDS011;26812;42.662;23.352;2022-12-24T01:07:24;43.20;;;27.17;;
41061;SDS011;26812;42.662;23.352;2022-12-24T01:09:49;37.42;;;25.02;;
41061;SDS011;26812;42.662;23.352;2022-12-24T01:12:15;37.17;;;23.63;;
41061;SDS011;26812;42.662;23.352;2022-12-24T01:14:40;39.95;;;23.75;;
41061;SDS011;26812;42.662;23.352;2022-12-24T01:17:05;41.42;;;24.13;;
41061;SDS011;26812;42.662;23.352;2022-12-24T01:19:31;38.42;;;25.55;;
41061;SDS011;26812;42.662;23.352;2022-12-24T01:21:57;49.83;;;27.67;;
41061;SDS011;26812;42.662;23.352;2022-12-24T01:24:23;46.83;;;26.58;;
41061;SDS011;26812;42.662;23.352;2022-12-24T01:26:48;39.63;;;24.77;;
41061;SDS011;26812;42.662;23.352;2022-12-24T01:29:14;37.08;;;26.15;;
41061;SDS011;26812;42.662;23.352;2022-12-24T01:31:40;44.58;;;25.75;;
41061;SDS011;26812;42.662;23.352;2022-12-24T01:34:05;40.85;;;24.60;;
41061;SDS011;26812;42.662;23.352;2022-12-24T01:36:31;39.45;;;26.30;;
41061;SDS011;26812;42.662;23.352;2022-12-24T01:38:57;42.03;;;26.92;;
41061;SDS011;26812;42.662;23.352;2022-12-24T01:41:23;45.65;;;25.77;;
41061;SDS011;26812;42.662;23.352;2022-12-24T01:44:27;46.22;;;27.23;;
41061;SDS011;26812;42.662;23.352;2022-12-24T01:47:16;40.10;;;26.58;;
41061;SDS011;26812;42.662;23.352;2022-12-24T01:49:41;37.75;;;25.17;;
41061;SDS011;26812;42.662;23.352;2022-12-24T01:52:13;39.35;;;25.52;;
41061;SDS011;26812;42.662;23.352;2022-12-24T01:54:52;45.25;;;26.75;;
41061;SDS011;26812;42.662;23.352;2022-12-24T01:58:07;47.97;;;26.33;;
41061;SDS011;26812;42.662;23.352;2022-12-24T02:00:15;43.17;;;26.33;;
41061;SDS011;26812;42.662;23.352;2022-12-24T02:02:42;41.92;;;25.00;;
41061;SDS011;26812;42.662;23.352;2022-12-24T02:07:45;43.35;;;24.38;;
41061;SDS011;26812;42.662;23.352;2022-12-24T02:10:11;38.92;;;23.30;;
41061;SDS011;26812;42.662;23.352;2022-12-24T02:12:38;36.20;;;22.55;;
41061;SDS011;26812;42.662;23.352;2022-12-24T02:15:05;43.03;;;24.48;;
41061;SDS011;26812;42.662;23.352;2022-12-24T02:17:39;40.92;;;23.75;;
41061;SDS011;26812;42.662;23.352;2022-12-24T02:31:47;38.10;;;24.13;;
41061;SDS011;26812;42.662;23.352;2022-12-24T02:36:57;44.08;;;25.30;;
41061;SDS011;26812;42.662;23.352;2022-12-24T02:39:42;45.17;;;25.65;;
41061;SDS011;26812;42.662;23.352;2022-12-24T02:42:14;38.95;;;23.50;;
41061;SDS011;26812;42.662;23.352;2022-12-24T02:44:48;39.10;;;25.05;;
41061;SDS011;26812;42.662;23.352;2022-12-24T02:47:18;46.13;;;24.40;;
41061;SDS011;26812;42.662;23.352;2022-12-24T02:49:47;40.75;;;23.42;;
41061;SDS011;26812;42.662;23.352;2022-12-24T02:52:32;35.03;;;22.23;;
41061;SDS011;26812;42.662;23.352;2022-12-24T02:55:01;41.42;;;23.55;;
41061;SDS011;26812;42.662;23.352;2022-12-24T03:00:03;35.90;;;22.33;;
41061;SDS011;26812;42.662;23.352;2022-12-24T03:05:50;39.60;;;23.13;;
41061;SDS011;26812;42.662;23.352;2022-12-24T03:11:17;38.55;;;22.27;;
41061;SDS011;26812;42.662;23.352;2022-12-24T03:13:42;31.02;;;21.40;;
41061;SDS011;26812;42.662;23.352;2022-12-24T03:16:10;35.97;;;23.25;;
41061;SDS011;26812;42.662;23.352;2022-12-24T03:18:39;36.17;;;24.10;;
41061;SDS011;26812;42.662;23.352;2022-12-24T03:21:13;38.05;;;22.65;;
41061;SDS011;26812;42.662;23.352;2022-12-24T03:23:42;34.90;;;22.77;;
41061;SDS011;26812;42.662;23.352;2022-12-24T03:26:08;32.88;;;22.15;;
41061;SDS011;26812;42.662;23.352;2022-12-24T03:28:36;35.53;;;21.48;;
41061;SDS011;26812;42.662;23.352;2022-12-24T03:31:04;35.42;;;24.02;;
41061;SDS011;26812;42.662;23.352;2022-12-24T03:33:31;38.65;;;22.33;;
41061;SDS011;26812;42.662;23.352;2022-12-24T03:35:56;36.88;;;22.45;;
41061;SDS011;26812;42.662;23.352;2022-12-24T03:38:22;40.33;;;22.65;;
41061;SDS011;26812;42.662;23.352;2022-12-24T03:40:47;36.92;;;22.05;;
41061;SDS011;26812;42.662;23.352;2022-12-24T03:43:13;31.38;;;22.33;;
41061;SDS011;26812;42.662;23.352;2022-12-24T03:45:38;38.92;;;21.58;;
41061;SDS011;26812;42.662;23.352;2022-12-24T03:48:04;36.35;;;21.05;;
41061;SDS011;26812;42.662;23.352;2022-12-24T03:50:29;34.88;;;22.55;;
41061;SDS011;26812;42.662;23.352;2022-12-24T03:52:55;34.00;;;20.25;;
41061;SDS011;26812;42.662;23.352;2022-12-24T03:55:21;32.03;;;21.75;;
41061;SDS011;26812;42.662;23.352;2022-12-24T03:57:46;31.88;;;20.75;;
41061;SDS011;26812;42.662;23.352;2022-12-24T04:00:12;40.83;;;21.73;;
41061;SDS011;26812;42.662;23.352;2022-12-24T04:02:38;34.92;;;20.98;;
41061;SDS011;26812;42.662;23.352;2022-12-24T04:05:04;34.85;;;21.52;;
41061;SDS011;26812;42.662;23.352;2022-12-24T04:07:31;35.55;;;20.38;;
41061;SDS011;26812;42.662;23.352;2022-12-24T04:09:57;32.65;;;21.17;;
41061;SDS011;26812;42.662;23.352;2022-12-24T04:12:23;35.60;;;21.35;;
41061;SDS011;26812;42.662;23.352;2022-12-24T04:14:48;34.47;;;20.95;;
41061;SDS011;26812;42.662;23.352;2022-12-24T04:17:14;33.53;;;21.33;;
41061;SDS011;26812;42.662;23.352;2022-12-24T04:19:40;38.30;;;22.60;;
41061;SDS011;26812;42.662;23.352;2022-12-24T04:22:05;34.63;;;20.83;;
41061;SDS011;26812;42.662;23.352;2022-12-24T04:24:31;30.40;;;20.92;;
41061;SDS011;26812;42.662;23.352;2022-12-24T04:26:56;34.33;;;21.52;;
41061;SDS011;26812;42.662;23.352;2022-12-24T04:29:21;37.42;;;22.65;;
41061;SDS011;26812;42.662;23.352;2022-12-24T04:31:47;39.90;;;21.35;;
41061;SDS011;26812;42.662;23.352;2022-12-24T04:34:12;37.63;;;20.67;;
41061;SDS011;26812;42.662;23.352;2022-12-24T04:36:37;33.80;;;22.08;;
41061;SDS011;26812;42.662;23.352;2022-12-24T04:39:03;36.40;;;22.27;;
41061;SDS011;26812;42.662;23.352;2022-12-24T04:41:28;34.15;;;21.23;;
41061;SDS011;26812;42.662;23.352;2022-12-24T04:43:54;40.30;;;21.40;;
41061;SDS011;26812;42.662;23.352;2022-12-24T04:46:23;39.40;;;21.77;;
41061;SDS011;26812;42.662;23.352;2022-12-24T04:48:51;34.13;;;20.05;;
41061;SDS011;26812;42.662;23.352;2022-12-24T04:51:17;34.78;;;22.05;;
41061;SDS011;26812;42.662;23.352;2022-12-24T04:53:43;35.78;;;21.65;;
41061;SDS011;26812;42.662;23.352;2022-12-24T04:56:13;33.35;;;19.83;;
41061;SDS011;26812;42.662;23.352;2022-12-24T04:58:40;32.70;;;20.63;;
41061;SDS011;26812;42.662;23.352;2022-12-24T05:01:06;29.10;;;19.30;;
41061;SDS011;26812;42.662;23.352;2022-12-24T05:03:36;32.20;;;19.27;;
41061;SDS011;26812;42.662;23.352;2022-12-24T05:06:05;34.75;;;20.80;;
41061;SDS011;26812;42.662;23.352;2022-12-24T05:08:36;34.97;;;22.67;;
41061;SDS011;26812;42.662;23.352;2022-12-24T05:11:01;32.42;;;20.98;;
41061;SDS011;26812;42.662;23.352;2022-12-24T05:13:27;32.67;;;20.70;;
41061;SDS011;26812;42.662;23.352;2022-12-24T05:15:53;29.58;;;19.42;;
41061;SDS011;26812;42.662;23.352;2022-12-24T05:18:19;26.98;;;19.02;;
41061;SDS011;26812;42.662;23.352;2022-12-24T05:20:46;29.50;;;20.30;;
41061;SDS011;26812;42.662;23.352;2022-12-24T05:23:30;29.90;;;19.02;;
41061;SDS011;26812;42.662;23.352;2022-12-24T05:26:18;27.27;;;16.15;;
41061;SDS011;26812;42.662;23.352;2022-12-24T05:28:52;27.35;;;17.58;;
41061;SDS011;26812;42.662;23.352;2022-12-24T05:31:19;33.03;;;19.45;;
41061;SDS011;26812;42.662;23.352;2022-12-24T05:33:45;26.15;;;19.35;;
41061;SDS011;26812;42.662;23.352;2022-12-24T05:36:11;28.35;;;19.85;;
41061;SDS011;26812;42.662;23.352;2022-12-24T05:38:37;29.83;;;18.33;;
41061;SDS011;26812;42.662;23.352;2022-12-24T05:41:03;26.88;;;19.52;;
41061;SDS011;26812;42.662;23.352;2022-12-24T05:43:29;28.08;;;18.13;;
41061;SDS011;26812;42.662;23.352;2022-12-24T05:45:58;26.13;;;19.02;;
41061;SDS011;26812;42.662;23.352;2022-12-24T05:48:28;29.05;;;18.35;;
41061;SDS011;26812;42.662;23.352;2022-12-24T05:50:53;30.20;;;19.13;;
41061;SDS011;26812;42.662;23.352;2022-12-24T05:53:19;28.85;;;19.13;;
41061;SDS011;26812;42.662;23.352;2022-12-24T05:55:45;25.83;;;17.42;;
41061;SDS011;26812;42.662;23.352;2022-12-24T05:58:10;26.25;;;18.40;;
41061;SDS011;26812;42.662;23.352;2022-12-24T06:00:36;28.45;;;18.70;;
41061;SDS011;26812;42.662;23.352;2022-12-24T06:03:01;24.90;;;17.20;;
41061;SDS011;26812;42.662;23.352;2022-12-24T06:05:27;25.80;;;18.38;;
41061;SDS011;26812;42.662;23.352;2022-12-24T06:07:52;29.48;;;17.73;;
41061;SDS011;26812;42.662;23.352;2022-12-24T06:10:17;28.85;;;17.15;;
41061;SDS011;26812;42.662;23.352;2022-12-24T06:12:43;28.10;;;19.02;;
41061;SDS011;26812;42.662;23.352;2022-12-24T06:15:09;29.90;;;19.05;;
41061;SDS011;26812;42.662;23.352;2022-12-24T06:17:35;26.13;;;17.23;;
41061;SDS011;26812;42.662;23.352;2022-12-24T06:20:00;27.30;;;18.30;;
41061;SDS011;26812;42.662;23.352;2022-12-24T06:22:25;30.42;;;19.00;;
41061;SDS011;26812;42.662;23.352;2022-12-24T06:24:51;27.58;;;19.38;;
41061;SDS011;26812;42.662;23.352;2022-12-24T06:27:16;28.05;;;19.05;;
41061;SDS011;26812;42.662;23.352;2022-12-24T06:29:42;30.63;;;19.15;;
41061;SDS011;26812;42.662;23.352;2022-12-24T06:32:07;26.88;;;20.25;;
41061;SDS011;26812;42.662;23.352;2022-12-24T06:34:33;38.67;;;22.88;;
41061;SDS011;26812;42.662;23.352;2022-12-24T06:36:58;35.15;;;22.88;;
41061;SDS011;26812;42.662;23.352;2022-12-24T06:39:23;34.25;;;21.67;;
41061;SDS011;26812;42.662;23.352;2022-12-24T06:41:49;59.70;;;34.28;;
41061;SDS011;26812;42.662;23.352;2022-12-24T06:44:15;67.45;;;39.13;;
41061;SDS011;26812;42.662;23.352;2022-12-24T06:46:40;69.72;;;44.35;;
41061;SDS011;26812;42.662;23.352;2022-12-24T06:49:06;82.70;;;48.05;;
41061;SDS011;26812;42.662;23.352;2022-12-24T06:51:31;88.35;;;52.63;;
41061;SDS011;26812;42.662;23.352;2022-12-24T06:53:56;78.88;;;47.50;;
41061;SDS011;26812;42.662;23.352;2022-12-24T06:56:22;95.00;;;53.40;;
41061;SDS011;26812;42.662;23.352;2022-12-24T06:58:47;98.85;;;61.45;;
41061;SDS011;26812;42.662;23.352;2022-12-24T07:01:14;104.57;;;62.58;;
41061;SDS011;26812;42.662;23.352;2022-12-24T07:03:41;78.72;;;48.55;;
41061;SDS011;26812;42.662;23.352;2022-12-24T07:06:14;108.50;;;59.72;;
41061;SDS011;26812;42.662;23.352;2022-12-24T07:08:43;105.80;;;60.38;;
41061;SDS011;26812;42.662;23.352;2022-12-24T07:11:09;95.15;;;58.47;;
41061;SDS011;26812;42.662;23.352;2022-12-24T07:13:34;105.47;;;54.97;;
41061;SDS011;26812;42.662;23.352;2022-12-24T07:16:00;87.97;;;53.25;;
41061;SDS011;26812;42.662;23.352;2022-12-24T07:18:28;87.88;;;52.03;;
41061;SDS011;26812;42.662;23.352;2022-12-24T07:20:53;82.60;;;51.20;;
41061;SDS011;26812;42.662;23.352;2022-12-24T07:23:19;80.53;;;49.75;;
41061;SDS011;26812;42.662;23.352;2022-12-24T07:25:45;81.50;;;48.55;;
41061;SDS011;26812;42.662;23.352;2022-12-24T07:28:10;85.10;;;48.53;;
41061;SDS011;26812;42.662;23.352;2022-12-24T07:30:35;75.35;;;47.53;;
41061;SDS011;26812;42.662;23.352;2022-12-24T07:33:01;63.30;;;39.63;;
41061;SDS011;26812;42.662;23.352;2022-12-24T07:35:27;69.78;;;40.00;;
41061;SDS011;26812;42.662;23.352;2022-12-24T07:37:52;79.07;;;45.72;;
41061;SDS011;26812;42.662;23.352;2022-12-24T07:40:18;87.72;;;49.88;;
41061;SDS011;26812;42.662;23.352;2022-12-24T07:42:43;79.13;;;45.35;;
41061;SDS011;26812;42.662;23.352;2022-12-24T07:45:09;77.88;;;47.70;;
41061;SDS011;26812;42.662;23.352;2022-12-24T07:47:34;75.20;;;45.22;;
41061;SDS011;26812;42.662;23.352;2022-12-24T07:50:00;76.25;;;43.33;;
41061;SDS011;26812;42.662;23.352;2022-12-24T07:52:26;64.55;;;41.95;;
41061;SDS011;26812;42.662;23.352;2022-12-24T07:54:52;65.38;;;39.72;;
41061;SDS011;26812;42.662;23.352;2022-12-24T07:57:17;63.60;;;36.60;;
41061;SDS011;26812;42.662;23.352;2022-12-24T07:59:43;61.58;;;40.03;;
41061;SDS011;26812;42.662;23.352;2022-12-24T08:02:11;72.47;;;43.50;;
41061;SDS011;26812;42.662;23.352;2022-12-24T08:04:36;66.63;;;41.30;;
41061;SDS011;26812;42.662;23.352;2022-12-24T08:07:03;54.10;;;35.45;;
41061;SDS011;26812;42.662;23.352;2022-12-24T08:09:32;57.90;;;38.72;;
41061;SDS011;26812;42.662;23.352;2022-12-24T08:11:59;51.15;;;33.30;;
41061;SDS011;26812;42.662;23.352;2022-12-24T08:14:26;49.88;;;32.80;;
41061;SDS011;26812;42.662;23.352;2022-12-24T08:16:52;51.15;;;31.33;;
41061;SDS011;26812;42.662;23.352;2022-12-24T08:19:17;49.47;;;31.85;;
41061;SDS011;26812;42.662;23.352;2022-12-24T08:21:43;47.47;;;31.50;;
41061;SDS011;26812;42.662;23.352;2022-12-24T08:24:08;48.55;;;32.83;;
41061;SDS011;26812;42.662;23.352;2022-12-24T08:26:34;41.00;;;27.08;;
41061;SDS011;26812;42.662;23.352;2022-12-24T08:28:59;42.28;;;27.42;;
41061;SDS011;26812;42.662;23.352;2022-12-24T08:31:32;38.92;;;25.13;;
41061;SDS011;26812;42.662;23.352;2022-12-24T08:34:03;32.30;;;22.83;;
41061;SDS011;26812;42.662;23.352;2022-12-24T08:36:31;38.35;;;24.70;;
41061;SDS011;26812;42.662;23.352;2022-12-24T08:38:57;36.67;;;24.95;;
41061;SDS011;26812;42.662;23.352;2022-12-24T08:41:23;38.40;;;23.98;;
41061;SDS011;26812;42.662;23.352;2022-12-24T08:43:48;43.45;;;26.67;;
41061;SDS011;26812;42.662;23.352;2022-12-24T08:46:13;42.28;;;24.70;;
41061;SDS011;26812;42.662;23.352;2022-12-24T08:48:39;42.38;;;27.65;;
41061;SDS011;26812;42.662;23.352;2022-12-24T08:51:05;48.80;;;29.65;;
41061;SDS011;26812;42.662;23.352;2022-12-24T08:53:32;47.97;;;28.85;;
41061;SDS011;26812;42.662;23.352;2022-12-24T08:56:05;47.20;;;29.88;;
41061;SDS011;26812;42.662;23.352;2022-12-24T08:58:32;40.78;;;27.77;;
41061;SDS011;26812;42.662;23.352;2022-12-24T09:00:58;47.97;;;29.05;;
41061;SDS011;26812;42.662;23.352;2022-12-24T09:03:23;47.45;;;29.88;;
41061;SDS011;26812;42.662;23.352;2022-12-24T09:05:49;58.60;;;33.80;;
41061;SDS011;26812;42.662;23.352;2022-12-24T09:08:14;54.97;;;32.03;;
41061;SDS011;26812;42.662;23.352;2022-12-24T09:10:40;54.97;;;30.48;;
41061;SDS011;26812;42.662;23.352;2022-12-24T09:13:05;50.28;;;29.58;;
41061;SDS011;26812;42.662;23.352;2022-12-24T09:15:31;51.85;;;30.08;;
41061;SDS011;26812;42.662;23.352;2022-12-24T09:17:56;44.80;;;27.33;;
41061;SDS011;26812;42.662;23.352;2022-12-24T09:20:22;43.08;;;26.02;;
41061;SDS011;26812;42.662;23.352;2022-12-24T09:22:47;39.25;;;22.88;;
41061;SDS011;26812;42.662;23.352;2022-12-24T09:25:13;33.70;;;21.52;;
41061;SDS011;26812;42.662;23.352;2022-12-24T09:27:38;36.63;;;23.15;;
41061;SDS011;26812;42.662;23.352;2022-12-24T09:30:04;35.88;;;21.83;;
41061;SDS011;26812;42.662;23.352;2022-12-24T09:32:31;33.15;;;20.80;;
41061;SDS011;26812;42.662;23.352;2022-12-24T09:34:57;35.17;;;21.50;;
41061;SDS011;26812;42.662;23.352;2022-12-24T09:37:22;37.65;;;26.50;;
41061;SDS011;26812;42.662;23.352;2022-12-24T09:39:47;42.78;;;28.10;;
41061;SDS011;26812;42.662;23.352;2022-12-24T09:44:43;53.90;;;32.25;;
41061;SDS011;26812;42.662;23.352;2022-12-24T09:47:27;54.00;;;33.97;;
41061;SDS011;26812;42.662;23.352;2022-12-24T09:49:58;54.53;;;35.08;;
41061;SDS011;26812;42.662;23.352;2022-12-24T09:52:37;50.92;;;34.25;;
41061;SDS011;26812;42.662;23.352;2022-12-24T09:57:39;66.97;;;41.20;;
41061;SDS011;26812;42.662;23.352;2022-12-24T10:00:28;71.47;;;43.75;;
41061;SDS011;26812;42.662;23.352;2022-12-24T10:02:56;72.88;;;44.45;;
41061;SDS011;26812;42.662;23.352;2022-12-24T10:05:33;78.25;;;45.80;;
41061;SDS011;26812;42.662;23.352;2022-12-24T10:10:44;72.38;;;44.97;;
41061;SDS011;26812;42.662;23.352;2022-12-24T10:13:20;71.32;;;44.50;;
41061;SDS011;26812;42.662;23.352;2022-12-24T10:24:33;66.72;;;41.03;;
41061;SDS011;26812;42.662;23.352;2022-12-24T10:27:11;61.70;;;38.03;;
41061;SDS011;26812;42.662;23.352;2022-12-24T10:29:41;56.72;;;37.13;;
41061;SDS011;26812;42.662;23.352;2022-12-24T10:32:14;52.72;;;35.70;;
41061;SDS011;26812;42.662;23.352;2022-12-24T10:34:57;53.13;;;33.92;;
41061;SDS011;26812;42.662;23.352;2022-12-24T10:37:26;49.95;;;33.40;;
41061;SDS011;26812;42.662;23.352;2022-12-24T10:39:53;51.92;;;33.30;;
41061;SDS011;26812;42.662;23.352;2022-12-24T10:42:24;54.33;;;34.97;;
41061;SDS011;26812;42.662;23.352;2022-12-24T10:44:55;52.40;;;34.75;;
41061;SDS011;26812;42.662;23.352;2022-12-24T10:47:26;50.65;;;33.05;;
41061;SDS011;26812;42.662;23.352;2022-12-24T10:49:53;52.75;;;32.90;;
41061;SDS011;26812;42.662;23.352;2022-12-24T10:52:26;50.60;;;33.28;;
41061;SDS011;26812;42.662;23.352;2022-12-24T10:57:42;52.35;;;32.70;;
41061;SDS011;26812;42.662;23.352;2022-12-24T11:00:19;49.67;;;30.73;;
41061;SDS011;26812;42.662;23.352;2022-12-24T11:02:47;52.78;;;31.60;;
41061;SDS011;26812;42.662;23.352;2022-12-24T11:05:29;55.35;;;31.60;;
41061;SDS011;26812;42.662;23.352;2022-12-24T11:08:04;51.33;;;30.77;;
41061;SDS011;26812;42.662;23.352;2022-12-24T11:10:43;48.78;;;30.70;;
41061;SDS011;26812;42.662;23.352;2022-12-24T11:13:25;52.88;;;31.92;;
41061;SDS011;26812;42.662;23.352;2022-12-24T11:15:59;53.25;;;31.20;;
41061;SDS011;26812;42.662;23.352;2022-12-24T11:18:33;50.28;;;32.30;;
41061;SDS011;26812;42.662;23.352;2022-12-24T11:21:00;56.28;;;30.70;;
41061;SDS011;26812;42.662;23.352;2022-12-24T11:23:28;46.22;;;29.27;;
41061;SDS011;26812;42.662;23.352;2022-12-24T11:26:00;41.97;;;29.02;;
41061;SDS011;26812;42.662;23.352;2022-12-24T11:28:30;46.25;;;29.33;;
41061;SDS011;26812;42.662;23.352;2022-12-24T11:31:02;46.03;;;29.55;;
41061;SDS011;26812;42.662;23.352;2022-12-24T11:33:30;48.63;;;29.42;;
41061;SDS011;26812;42.662;23.352;2022-12-24T11:36:09;46.47;;;27.67;;
41061;SDS011;26812;42.662;23.352;2022-12-24T11:38:37;48.72;;;28.42;;
41061;SDS011;26812;42.662;23.352;2022-12-24T11:41:10;51.40;;;30.92;;
41061;SDS011;26812;42.662;23.352;2022-12-24T11:43:40;48.92;;;28.75;;
41061;SDS011;26812;42.662;23.352;2022-12-24T11:46:19;43.55;;;27.80;;
41061;SDS011;26812;42.662;23.352;2022-12-24T11:48:45;41.85;;;26.95;;
41061;SDS011;26812;42.662;23.352;2022-12-24T11:53:57;44.45;;;28.48;;
41061;SDS011;26812;42.662;23.352;2022-12-24T11:56:35;42.65;;;27.75;;
41061;SDS011;26812;42.662;23.352;2022-12-24T11:59:08;45.05;;;28.13;;
41061;SDS011;26812;42.662;23.352;2022-12-24T12:02:01;39.78;;;27.10;;
41061;SDS011;26812;42.662;23.352;2022-12-24T12:04:53;40.90;;;27.75;;
41061;SDS011;26812;42.662;23.352;2022-12-24T12:07:30;45.90;;;28.98;;
41061;SDS011;26812;42.662;23.352;2022-12-24T12:10:21;45.80;;;28.13;;
41061;SDS011;26812;42.662;23.352;2022-12-24T12:15:37;38.47;;;29.65;;
41061;SDS011;26812;42.662;23.352;2022-12-24T12:18:12;44.05;;;27.70;;
41061;SDS011;26812;42.662;23.352;2022-12-24T12:20:42;42.72;;;28.77;;
41061;SDS011;26812;42.662;23.352;2022-12-24T12:28:22;43.47;;;28.60;;
41061;SDS011;26812;42.662;23.352;2022-12-24T12:31:00;45.60;;;27.75;;
41061;SDS011;26812;42.662;23.352;2022-12-24T12:33:35;40.38;;;28.75;;
41061;SDS011;26812;42.662;23.352;2022-12-24T12:36:04;41.55;;;28.00;;
41061;SDS011;26812;42.662;23.352;2022-12-24T12:38:34;42.20;;;28.15;;
41061;SDS011;26812;42.662;23.352;2022-12-24T12:51:49;29.90;;;22.92;;
41061;SDS011;26812;42.662;23.352;2022-12-24T12:54:40;34.00;;;23.52;;
41061;SDS011;26812;42.662;23.352;2022-12-24T12:57:15;34.05;;;22.77;;
41061;SDS011;26812;42.662;23.352;2022-12-24T12:59:44;34.42;;;22.88;;
41061;SDS011;26812;42.662;23.352;2022-12-24T13:14:00;50.65;;;32.17;;
41061;SDS011;26812;42.662;23.352;2022-12-24T13:21:37;59.70;;;33.13;;
41061;SDS011;26812;42.662;23.352;2022-12-24T13:27:10;62.28;;;35.90;;
41061;SDS011;26812;42.662;23.352;2022-12-24T13:32:35;53.85;;;33.88;;
41061;SDS011;26812;42.662;23.352;2022-12-24T13:35:21;53.70;;;34.38;;
41061;SDS011;26812;42.662;23.352;2022-12-24T13:37:48;58.60;;;34.53;;
41061;SDS011;26812;42.662;23.352;2022-12-24T13:53:00;51.83;;;32.00;;
41061;SDS011;26812;42.662;23.352;2022-12-24T13:55:26;55.92;;;32.25;;
41061;SDS011;26812;42.662;23.352;2022-12-24T13:57:56;55.75;;;33.45;;
41061;SDS011;26812;42.662;23.352;2022-12-24T14:00:38;60.17;;;33.28;;
41061;SDS011;26812;42.662;23.352;2022-12-24T14:08:12;52.22;;;31.25;;
41061;SDS011;26812;42.662;23.352;2022-12-24T14:12:12;50.05;;;30.83;;
41061;SDS011;26812;42.662;23.352;2022-12-24T14:17:14;51.42;;;29.98;;
41061;SDS011;26812;42.662;23.352;2022-12-24T14:19:22;51.45;;;30.00;;
41061;SDS011;26812;42.662;23.352;2022-12-24T14:24:33;51.33;;;31.30;;
41061;SDS011;26812;42.662;23.352;2022-12-24T14:32:42;60.60;;;36.70;;
41061;SDS011;26812;42.662;23.352;2022-12-24T14:35:49;61.13;;;37.70;;
41061;SDS011;26812;42.662;23.352;2022-12-24T14:38:14;57.75;;;35.45;;
41061;SDS011;26812;42.662;23.352;2022-12-24T14:46:22;73.78;;;43.25;;
41061;SDS011;26812;42.662;23.352;2022-12-24T14:52:06;79.25;;;44.80;;
41061;SDS011;26812;42.662;23.352;2022-12-24T14:54:38;76.90;;;44.50;;
41061;SDS011;26812;42.662;23.352;2022-12-24T14:59:43;70.15;;;41.25;;
41061;SDS011;26812;42.662;23.352;2022-12-24T15:05:08;45.40;;;31.70;;
41061;SDS011;26812;42.662;23.352;2022-12-24T15:07:33;43.30;;;27.67;;
41061;SDS011;26812;42.662;23.352;2022-12-24T15:10:02;38.88;;;25.38;;
41061;SDS011;26812;42.662;23.352;2022-12-24T15:12:29;34.17;;;21.30;;
41061;SDS011;26812;42.662;23.352;2022-12-24T15:14:56;37.70;;;23.55;;
41061;SDS011;26812;42.662;23.352;2022-12-24T15:17:21;28.13;;;20.75;;
41061;SDS011;26812;42.662;23.352;2022-12-24T15:19:48;29.00;;;18.95;;
41061;SDS011;26812;42.662;23.352;2022-12-24T15:22:21;33.33;;;18.05;;
41061;SDS011;26812;42.662;23.352;2022-12-24T15:24:47;26.52;;;16.75;;
41061;SDS011;26812;42.662;23.352;2022-12-24T15:27:14;22.90;;;15.45;;
41061;SDS011;26812;42.662;23.352;2022-12-24T15:29:54;25.85;;;17.13;;
41061;SDS011;26812;42.662;23.352;2022-12-24T15:32:21;28.00;;;17.60;;
41061;SDS011;26812;42.662;23.352;2022-12-24T15:34:51;29.67;;;18.67;;
41061;SDS011;26812;42.662;23.352;2022-12-24T15:37:24;23.55;;;15.95;;
41061;SDS011;26812;42.662;23.352;2022-12-24T15:39:53;27.05;;;16.65;;
41061;SDS011;26812;42.662;23.352;2022-12-24T15:42:22;21.17;;;14.85;;
41061;SDS011;26812;42.662;23.352;2022-12-24T15:47:34;21.65;;;13.40;;
41061;SDS011;26812;42.662;23.352;2022-12-24T15:50:48;21.98;;;12.77;;
41061;SDS011;26812;42.662;23.352;2022-12-24T15:53:12;17.70;;;11.63;;
41061;SDS011;26812;42.662;23.352;2022-12-24T15:55:40;18.95;;;12.65;;
41061;SDS011;26812;42.662;23.352;2022-12-24T15:58:43;20.13;;;12.68;;
41061;SDS011;26812;42.662;23.352;2022-12-24T16:06:15;19.90;;;12.90;;
41061;SDS011;26812;42.662;23.352;2022-12-24T16:08:42;19.55;;;13.52;;
41061;SDS011;26812;42.662;23.352;2022-12-24T16:13:34;23.23;;;13.00;;
41061;SDS011;26812;42.662;23.352;2022-12-24T16:16:04;15.02;;;10.90;;
41061;SDS011;26812;42.662;23.352;2022-12-24T16:18:34;15.60;;;11.85;;
41061;SDS011;26812;42.662;23.352;2022-12-24T16:21:02;16.73;;;10.63;;
41061;SDS011;26812;42.662;23.352;2022-12-24T16:23:44;18.63;;;11.48;;
41061;SDS011;26812;42.662;23.352;2022-12-24T16:26:11;15.80;;;11.60;;
41061;SDS011;26812;42.662;23.352;2022-12-24T16:28:37;15.65;;;11.52;;
41061;SDS011;26812;42.662;23.352;2022-12-24T16:31:02;16.50;;;11.85;;
41061;SDS011;26812;42.662;23.352;2022-12-24T16:33:28;17.80;;;12.27;;
41061;SDS011;26812;42.662;23.352;2022-12-24T16:35:54;38.78;;;23.88;;
41061;SDS011;26812;42.662;23.352;2022-12-24T16:38:19;62.25;;;40.00;;
41061;SDS011;26812;42.662;23.352;2022-12-24T16:40:45;62.38;;;40.63;;
41061;SDS011;26812;42.662;23.352;2022-12-24T16:43:11;77.80;;;44.95;;